Terminal Aerodrome Forecast
Issued by NWS Green Bay, WI

Home | Current Version | Previous Version | Graphics & Text | Print | Product List | Glossary On
Versions: 1 2 3 4 5 6 7 8 9 10 11 12 13 14 15 16 17 18 19
000
FTUS43 KGRB 231727
TAFGRB
TAF
KGRB 231727Z 2318/2418 27013G23KT P6SM SCT060
     FM232300 29011G19KT P6SM VCSH SCT060
     FM240200 29006KT P6SM SCT050
     FM241600 29012G21KT P6SM VCSH BKN040=

USA.gov is the U.S. government's official web portal to all federal, state and local government web resources and services.